Airfield :
LOGIN :

Register | Disclaimer

   EN    FR    IT 

 










Legend :    VFR   Marginal VFR   IFR   Intensive IFR   Very Intensive IFR
Visi :
Ceiling :
>= 8 km
>= 3000ft
5 to 8 km
1000 to 3000 ft
1500m to 5 km
500 to 1000 ft
800 to 1500m
200 to 500 ft
< 800m
< 200 ft
Symbols :   Thunderstorms  Fog  Heavy snow  Heavy precipitations  Wind > 20 kt
SIGMETs :     Misc.  Thunderstorms  Icing  Turbulence  Mountain Waves  Volcanic Ashes






- Airport Elevation : 147 ft
- IATA code : DUS


EDDL - Düsseldorf Int.

CURRENT METAR :
  • 010820Z 24010KT 9999 BKN017 17/13 Q1009 NOSIG

EXPIRED METARs :
  • 010750Z 22010KT 9999 BKN016 17/14 Q1009 NOSIG
  • 010720Z 22010KT 9999 SCT012 17/14 Q1009 NOSIG
  • 010650Z 21008KT 9999 FEW010 16/14 Q1009 NOSIG
  • 010620Z 22008KT 9999 FEW009 15/13 Q1009 NOSIG
  • 010550Z 22007KT 9999 FEW009 15/14 Q1009 NOSIG

TAF TAF EDDL
Valid from the 01 at 06:00 until the 02 at 12:00 UTC


010500Z 0106/0212 22005KT 9999 BKN030
PROB30
TEMPO 0106/0108 BKN010
BECMG 0106/0109 22010KT
BECMG 0110/0113 28010KT
TEMPO 0112/0120 SHRA SCT014CB
PROB30
TEMPO 0114/0119 TSRA BKN015CB
BECMG 0119/0121 25004KT
TEMPO 0200/0209 BKN009
PROB30
TEMPO 0203/0206 3000 -RA BR



MET'MAP, your aeronautical weather chart ! - Copyright ORBIFLY December 2007 - Disclaimer

ORBIFLY MET'MAP TEAM :

Programming & Development : Alexandra Zaïnal
Concept & original design : Baudouin d'Aumeries
Assistance for programming : Marc-Olivier Méhu
Technical & hardware support : Manuel Goepfert

Contact : metmap@orbifly.com




SOURCES & CREDITS :

   NOAA